createdAt,value
2023-12-01T00:00:17.616Z,31.200
2023-12-01T00:01:18.449Z,29.800
2023-12-01T00:02:18.562Z,29.700
2023-12-01T00:03:17.804Z,30.300
2023-12-01T00:04:18.787Z,29.800
2023-12-01T00:05:17.762Z,29.900
2023-12-01T00:06:18.260Z,29.900
2023-12-01T00:07:17.799Z,30.600
2023-12-01T00:08:18.368Z,29.900
2023-12-01T00:09:17.881Z,31.500
2023-12-01T00:10:18.624Z,30.900
2023-12-01T00:11:18.536Z,29.400
2023-12-01T00:12:18.626Z,29.000
2023-12-01T00:13:18.344Z,28.900
2023-12-01T00:14:17.961Z,30.600
2023-12-01T00:15:18.487Z,30.800
2023-12-01T00:17:18.118Z,30.300
2023-12-01T00:18:17.844Z,31.100
2023-12-01T00:19:19.038Z,30.100
2023-12-01T00:20:18.256Z,29.000
2023-12-01T00:21:17.733Z,29.900
2023-12-01T00:22:18.412Z,29.900
2023-12-01T00:23:18.437Z,30.300
2023-12-01T00:24:18.478Z,30.800
2023-12-01T00:25:18.677Z,29.100
2023-12-01T00:26:18.608Z,30.500
2023-12-01T00:27:18.806Z,29.400
2023-12-01T00:28:18.886Z,27.600
2023-12-01T00:29:18.385Z,30.100
2023-12-01T00:31:17.909Z,29.600
2023-12-01T00:32:18.690Z,29.400
2023-12-01T00:33:18.978Z,29.600
2023-12-01T00:34:17.987Z,29.500
2023-12-01T00:35:18.282Z,28.700
2023-12-01T00:36:18.329Z,29.700
2023-12-01T00:37:18.437Z,30.700
2023-12-01T00:38:18.526Z,30.300
2023-12-01T00:40:18.823Z,31.500
2023-12-01T00:41:17.731Z,28.400
2023-12-01T00:42:18.422Z,31.200
2023-12-01T00:43:18.668Z,28.500
2023-12-01T00:45:17.979Z,28.800
2023-12-01T00:46:18.665Z,29.800
2023-12-01T00:47:18.570Z,30.800
2023-12-01T00:48:18.471Z,29.700
2023-12-01T00:49:18.804Z,28.500
2023-12-01T00:50:18.482Z,29.800
2023-12-01T00:52:18.544Z,30.800
2023-12-01T00:53:18.556Z,30.000
2023-12-01T00:54:18.727Z,30.500
2023-12-01T00:55:18.761Z,27.900
2023-12-01T00:56:18.261Z,29.900
2023-12-01T00:57:17.710Z,29.700
2023-12-01T00:58:18.387Z,30.300
2023-12-01T00:59:17.936Z,30.600
2023-12-01T01:00:18.648Z,29.100
2023-12-01T01:01:18.476Z,29.900
2023-12-01T01:02:18.317Z,29.800
2023-12-01T01:03:18.554Z,29.900
2023-12-01T01:05:18.397Z,31.200
2023-12-01T01:06:17.877Z,29.000
2023-12-01T01:07:18.529Z,31.600
2023-12-01T01:08:18.674Z,28.800
2023-12-01T01:09:18.238Z,29.900
2023-12-01T01:10:17.844Z,30.700
2023-12-01T01:11:20.288Z,30.900
2023-12-01T01:12:18.005Z,31.000
2023-12-01T01:13:18.695Z,31.300
2023-12-01T01:14:18.284Z,32.400
2023-12-01T01:15:18.085Z,31.800
2023-12-01T01:16:18.492Z,32.700
2023-12-01T01:18:18.412Z,30.700
2023-12-01T01:19:19.194Z,31.600
2023-12-01T01:20:18.570Z,32.300
2023-12-01T01:21:18.094Z,31.600
2023-12-01T01:22:17.720Z,32.700
2023-12-01T01:23:18.410Z,31.900
2023-12-01T01:26:18.904Z,33.200
2023-12-01T01:27:18.462Z,31.600
2023-12-01T01:28:18.105Z,33.200
2023-12-01T01:31:18.631Z,33.700
2023-12-01T01:32:18.341Z,31.700
2023-12-01T01:33:18.494Z,30.800
2023-12-01T01:36:18.201Z,30.600
2023-12-01T01:37:17.878Z,29.200
2023-12-01T01:38:18.435Z,31.600
2023-12-01T01:39:18.148Z,32.300
2023-12-01T01:40:18.362Z,30.400
2023-12-01T01:41:18.102Z,31.900
2023-12-01T01:44:18.162Z,32.900
2023-12-01T01:45:18.214Z,30.400
2023-12-01T01:46:18.940Z,29.200
2023-12-01T01:47:17.625Z,29.400
2023-12-01T01:48:18.392Z,29.200
2023-12-01T01:49:18.706Z,30.100
2023-12-01T01:51:18.711Z,31.400
2023-12-01T01:52:18.297Z,30.900
2023-12-01T01:53:17.965Z,31.600
2023-12-01T01:54:18.401Z,30.600
2023-12-01T01:56:17.848Z,30.900
2023-12-01T01:57:18.390Z,31.500
2023-12-01T01:58:18.213Z,31.600
2023-12-01T01:59:18.482Z,31.100
2023-12-01T02:01:18.642Z,31.500
2023-12-01T02:02:19.304Z,32.200
2023-12-01T02:03:18.648Z,31.100
2023-12-01T02:04:18.767Z,32.200
2023-12-01T02:05:18.711Z,30.700
2023-12-01T02:06:18.191Z,32.400
2023-12-01T02:07:17.767Z,31.900
2023-12-01T02:08:18.425Z,31.300
2023-12-01T02:09:17.937Z,30.200
2023-12-01T02:10:18.677Z,33.300
2023-12-01T02:11:18.180Z,31.200
2023-12-01T02:12:17.673Z,30.600
2023-12-01T02:13:18.495Z,33.200
2023-12-01T02:14:18.398Z,32.300
2023-12-01T02:15:17.925Z,32.100
2023-12-01T02:16:18.756Z,31.200
2023-12-01T02:17:18.729Z,30.900
2023-12-01T02:18:18.761Z,32.600
2023-12-01T02:19:18.731Z,30.700
2023-12-01T02:20:19.753Z,32.900
2023-12-01T02:23:18.522Z,31.600
2023-12-01T02:24:18.094Z,30.900
2023-12-01T02:25:17.909Z,31.500
2023-12-01T02:26:18.508Z,31.700
2023-12-01T02:28:18.509Z,32.700
2023-12-01T02:29:20.239Z,29.900
2023-12-01T02:30:17.842Z,30.300
2023-12-01T02:31:18.925Z,30.600
2023-12-01T02:32:18.655Z,31.300
2023-12-01T02:34:18.271Z,31.000
2023-12-01T02:35:17.860Z,32.100
2023-12-01T02:36:18.389Z,30.200
2023-12-01T02:37:18.343Z,30.600
2023-12-01T02:38:17.992Z,30.700
2023-12-01T02:39:18.108Z,31.000
2023-12-01T02:40:18.283Z,30.000
2023-12-01T02:41:19.000Z,30.700
2023-12-01T02:42:18.536Z,31.600
2023-12-01T02:43:18.457Z,31.700
2023-12-01T02:44:18.583Z,30.800
2023-12-01T02:45:18.120Z,29.900
2023-12-01T02:46:18.977Z,30.600
2023-12-01T02:47:17.812Z,30.200
2023-12-01T02:48:18.416Z,30.900
2023-12-01T02:49:18.076Z,31.700
2023-12-01T02:50:17.610Z,32.800
2023-12-01T02:51:18.184Z,30.800
2023-12-01T02:52:17.934Z,29.100
2023-12-01T02:53:18.532Z,31.200
2023-12-01T02:54:18.075Z,30.800
2023-12-01T02:55:17.792Z,29.100
2023-12-01T02:56:18.522Z,31.600
2023-12-01T02:57:18.366Z,31.300
2023-12-01T02:58:18.710Z,31.000
2023-12-01T02:59:18.439Z,30.700
2023-12-01T03:00:18.523Z,33.600
2023-12-01T03:03:18.355Z,30.700
2023-12-01T03:04:18.364Z,32.400
2023-12-01T03:05:18.219Z,30.300
2023-12-01T03:07:19.224Z,32.900
2023-12-01T03:08:18.181Z,31.700
2023-12-01T03:09:17.823Z,31.800
2023-12-01T03:10:18.673Z,31.400
2023-12-01T03:11:18.341Z,31.400
2023-12-01T03:12:20.333Z,32.400
2023-12-01T03:13:18.849Z,32.200
2023-12-01T03:15:22.604Z,31.400
2023-12-01T03:16:18.882Z,32.300
2023-12-01T03:17:17.941Z,32.800
2023-12-01T03:18:20.398Z,32.300
2023-12-01T03:21:19.779Z,32.800
2023-12-01T03:22:18.548Z,29.500
2023-12-01T03:24:17.833Z,32.100
2023-12-01T03:25:19.615Z,31.400
2023-12-01T03:26:18.464Z,30.700
2023-12-01T03:27:18.516Z,30.800
2023-12-01T03:29:17.864Z,29.400
2023-12-01T03:30:18.456Z,32.200
2023-12-01T03:31:19.145Z,30.500
2023-12-01T03:32:17.845Z,30.900
2023-12-01T03:33:18.478Z,29.600
2023-12-01T03:34:18.230Z,31.100
2023-12-01T03:35:18.048Z,29.600
2023-12-01T03:36:18.121Z,30.900
2023-12-01T03:37:18.346Z,30.200
2023-12-01T03:39:18.348Z,30.900
2023-12-01T03:40:18.839Z,30.700
2023-12-01T03:42:18.472Z,29.600
2023-12-01T03:43:18.790Z,29.900
2023-12-01T03:44:18.314Z,30.300
2023-12-01T03:45:17.938Z,29.300
2023-12-01T03:46:18.371Z,29.300
2023-12-01T03:47:18.066Z,30.500
2023-12-01T03:50:18.530Z,29.600
2023-12-01T03:52:18.314Z,32.200
2023-12-01T03:53:18.406Z,30.600
2023-12-01T03:54:17.876Z,32.300
2023-12-01T03:55:19.160Z,33.400
2023-12-01T03:56:18.561Z,32.600
2023-12-01T03:57:18.582Z,35.000
2023-12-01T03:58:18.862Z,32.100
2023-12-01T03:59:18.477Z,35.300
2023-12-01T04:00:19.230Z,31.500
2023-12-01T04:01:18.167Z,34.900
2023-12-01T04:02:18.342Z,34.100
2023-12-01T04:03:18.053Z,34.100
2023-12-01T04:04:18.219Z,34.500
2023-12-01T04:05:20.607Z,32.500
2023-12-01T04:06:18.275Z,30.700
2023-12-01T04:07:18.449Z,32.700
2023-12-01T04:08:19.023Z,35.300
2023-12-01T04:09:18.418Z,33.900
2023-12-01T04:10:18.693Z,31.300
2023-12-01T04:11:19.161Z,34.700
2023-12-01T04:12:17.639Z,33.500
2023-12-01T04:13:20.332Z,32.200
2023-12-01T04:14:18.771Z,32.600
2023-12-01T04:15:18.411Z,31.700
2023-12-01T04:16:18.190Z,29.800
2023-12-01T04:19:18.577Z,31.900
2023-12-01T04:20:18.205Z,31.100
2023-12-01T04:21:18.333Z,30.700
2023-12-01T04:22:18.302Z,33.400
2023-12-01T04:23:18.391Z,30.900
2023-12-01T04:24:18.452Z,31.600
2023-12-01T04:25:18.726Z,30.600
2023-12-01T04:26:18.593Z,31.800
2023-12-01T04:27:18.640Z,31.900
2023-12-01T04:29:17.915Z,30.700
2023-12-01T04:30:18.491Z,31.200
2023-12-01T04:31:23.596Z,31.400
2023-12-01T04:32:18.454Z,29.800
2023-12-01T04:33:18.558Z,33.300
2023-12-01T04:35:18.253Z,30.200
2023-12-01T04:36:17.737Z,29.800
2023-12-01T04:37:18.763Z,31.500
2023-12-01T04:38:18.568Z,29.100
2023-12-01T04:39:18.579Z,32.900
2023-12-01T04:40:19.566Z,30.000
2023-12-01T04:41:18.660Z,31.400
2023-12-01T04:42:18.174Z,30.400
2023-12-01T04:43:17.908Z,30.900
2023-12-01T04:44:18.536Z,30.500
2023-12-01T04:45:18.333Z,29.600
2023-12-01T04:46:18.260Z,29.100
2023-12-01T04:48:18.428Z,28.800
2023-12-01T04:49:19.304Z,30.200
2023-12-01T04:50:17.832Z,30.700
2023-12-01T04:51:18.360Z,30.300
2023-12-01T04:52:18.591Z,30.800
2023-12-01T04:54:18.068Z,31.000
2023-12-01T04:55:17.975Z,30.100
2023-12-01T04:56:17.555Z,30.500
2023-12-01T04:57:18.757Z,30.800
2023-12-01T04:58:18.649Z,30.600
2023-12-01T04:59:18.272Z,31.800
2023-12-01T05:02:18.204Z,30.900
2023-12-01T05:03:18.590Z,30.700
2023-12-01T05:04:19.054Z,31.000
2023-12-01T05:05:18.699Z,30.000
2023-12-01T05:06:18.399Z,31.500
2023-12-01T05:07:18.650Z,31.400
2023-12-01T05:09:18.150Z,30.800
2023-12-01T05:10:18.915Z,31.100
2023-12-01T05:11:17.612Z,30.400
2023-12-01T05:12:18.876Z,30.400
2023-12-01T05:13:19.278Z,30.300
2023-12-01T05:14:17.850Z,29.400
2023-12-01T05:15:18.347Z,29.200
2023-12-01T05:16:18.305Z,30.300
2023-12-01T05:17:18.408Z,30.000
2023-12-01T05:18:18.483Z,29.800
2023-12-01T05:19:18.713Z,29.500
2023-12-01T05:21:17.920Z,29.100
2023-12-01T05:22:18.729Z,29.400
2023-12-01T05:23:19.495Z,31.300
2023-12-01T05:24:18.036Z,29.000
2023-12-01T05:25:18.146Z,29.500
2023-12-01T05:26:17.743Z,30.500
2023-12-01T05:27:18.223Z,29.700
2023-12-01T05:28:18.452Z,30.900
2023-12-01T05:29:18.022Z,30.800
2023-12-01T05:32:18.395Z,31.000
2023-12-01T05:33:18.505Z,32.300
2023-12-01T05:34:19.403Z,33.000
2023-12-01T05:35:18.466Z,31.500
2023-12-01T05:36:18.568Z,32.700
2023-12-01T05:37:18.778Z,32.500
2023-12-01T05:38:18.632Z,31.500
2023-12-01T05:40:18.109Z,31.600
2023-12-01T05:42:18.475Z,32.700
2023-12-01T05:44:18.319Z,33.100
2023-12-01T05:46:18.550Z,32.700
2023-12-01T05:49:18.621Z,33.600
2023-12-01T05:51:18.658Z,33.100
2023-12-01T05:52:18.860Z,33.700
2023-12-01T05:53:18.446Z,33.200
2023-12-01T05:54:18.008Z,34.200
2023-12-01T05:55:23.072Z,34.900
2023-12-01T05:56:17.561Z,32.500
2023-12-01T05:57:18.065Z,33.700
2023-12-01T05:58:18.392Z,33.500
2023-12-01T06:00:18.269Z,34.300
2023-12-01T06:01:18.511Z,32.900
2023-12-01T06:02:19.264Z,32.900
2023-12-01T06:03:18.950Z,32.900
2023-12-01T06:05:18.611Z,32.900
2023-12-01T06:06:18.682Z,34.600
2023-12-01T06:07:18.366Z,34.100
2023-12-01T06:08:18.544Z,32.700
2023-12-01T06:09:18.003Z,35.000
2023-12-01T06:10:18.738Z,35.700
2023-12-01T06:12:18.079Z,35.200
2023-12-01T06:13:18.376Z,34.200
2023-12-01T06:14:17.943Z,33.100
2023-12-01T06:15:18.425Z,33.700
2023-12-01T06:16:18.596Z,34.100
2023-12-01T06:18:18.180Z,36.000
2023-12-01T06:19:19.732Z,33.600
2023-12-01T06:20:18.453Z,33.600
2023-12-01T06:21:18.298Z,33.400
2023-12-01T06:22:18.213Z,33.600
2023-12-01T06:23:17.758Z,33.700
2023-12-01T06:24:18.534Z,36.100
2023-12-01T06:25:18.194Z,34.200
2023-12-01T06:26:18.134Z,35.600
2023-12-01T06:27:17.652Z,35.200
2023-12-01T06:28:19.363Z,33.600
2023-12-01T06:29:18.322Z,35.900
2023-12-01T06:30:18.478Z,36.500
2023-12-01T06:31:20.563Z,35.200
2023-12-01T06:32:18.614Z,33.100
2023-12-01T06:35:18.397Z,33.800
2023-12-01T06:36:17.895Z,34.200
2023-12-01T06:37:19.001Z,34.700
2023-12-01T06:39:17.983Z,35.200
2023-12-01T06:40:19.997Z,33.900
2023-12-01T06:41:17.983Z,37.600
2023-12-01T06:42:18.460Z,35.400
2023-12-01T06:43:19.106Z,35.600
2023-12-01T06:44:17.616Z,35.400
2023-12-01T06:45:18.493Z,35.100
2023-12-01T06:46:18.241Z,35.200
2023-12-01T06:47:18.184Z,36.400
2023-12-01T06:48:18.230Z,37.000
2023-12-01T06:49:18.110Z,36.000
2023-12-01T06:52:18.073Z,36.200
2023-12-01T06:53:18.403Z,36.000
2023-12-01T06:54:18.189Z,35.700
2023-12-01T06:55:18.420Z,36.500
2023-12-01T06:56:18.271Z,38.800
2023-12-01T06:57:18.352Z,36.300
2023-12-01T06:58:18.531Z,36.900
2023-12-01T06:59:21.059Z,34.500
2023-12-01T07:00:17.520Z,37.800
2023-12-01T07:01:18.772Z,36.800
2023-12-01T07:02:18.997Z,38.100
2023-12-01T07:03:18.426Z,37.600
2023-12-01T07:05:17.801Z,36.900
2023-12-01T07:06:18.374Z,36.800
2023-12-01T07:07:18.055Z,37.200
2023-12-01T07:08:19.363Z,36.100
2023-12-01T07:10:18.799Z,38.800
2023-12-01T07:11:18.451Z,38.300
2023-12-01T07:12:18.378Z,38.200
2023-12-01T07:13:18.873Z,34.900
2023-12-01T07:15:18.580Z,36.000
2023-12-01T07:16:18.458Z,35.200
2023-12-01T07:17:18.982Z,36.800
2023-12-01T07:18:17.920Z,36.500
2023-12-01T07:19:18.709Z,37.900
2023-12-01T07:20:18.500Z,37.100
2023-12-01T07:21:18.046Z,37.400
2023-12-01T07:24:18.417Z,37.400
2023-12-01T07:25:18.546Z,35.600
2023-12-01T07:26:18.532Z,36.300
2023-12-01T07:27:18.487Z,37.600
2023-12-01T07:28:18.760Z,37.500
2023-12-01T07:29:18.381Z,38.100
2023-12-01T07:30:18.634Z,36.800
2023-12-01T07:31:19.392Z,35.900
2023-12-01T07:32:18.059Z,36.500
2023-12-01T07:33:17.810Z,36.300
2023-12-01T07:34:18.631Z,37.100
2023-12-01T07:35:18.376Z,36.700
2023-12-01T07:36:35.307Z,38.500
2023-12-01T07:37:18.263Z,37.400
2023-12-01T07:38:18.250Z,37.400
2023-12-01T07:39:19.352Z,34.600
2023-12-01T07:40:18.516Z,36.000
2023-12-01T07:41:18.513Z,37.900
2023-12-01T07:42:18.547Z,36.500
2023-12-01T07:43:18.531Z,36.700
2023-12-01T07:44:18.872Z,38.400
2023-12-01T07:45:19.820Z,38.400
2023-12-01T07:46:19.009Z,38.500
2023-12-01T07:47:18.110Z,38.400
2023-12-01T07:49:22.511Z,39.000
2023-12-01T07:51:18.086Z,41.000
2023-12-01T07:52:18.396Z,39.100
2023-12-01T07:53:18.444Z,40.500
2023-12-01T07:54:18.401Z,39.900
2023-12-01T07:55:18.771Z,36.900
2023-12-01T07:56:17.836Z,36.700
2023-12-01T07:57:18.450Z,36.800
2023-12-01T07:58:19.033Z,37.300
2023-12-01T07:59:17.803Z,37.800
2023-12-01T08:01:18.975Z,38.400
2023-12-01T08:02:18.260Z,38.000
2023-12-01T08:03:18.347Z,39.300
2023-12-01T08:04:19.636Z,38.700
2023-12-01T08:05:20.235Z,37.400
2023-12-01T08:06:17.674Z,38.300
2023-12-01T08:09:18.057Z,39.100
2023-12-01T08:10:20.990Z,39.000
2023-12-01T08:11:18.868Z,39.000
2023-12-01T08:13:18.628Z,38.600
2023-12-01T08:14:18.417Z,37.600
2023-12-01T08:16:18.807Z,40.700
2023-12-01T08:17:18.294Z,39.100
2023-12-01T08:18:18.442Z,39.700
2023-12-01T08:19:18.761Z,41.900
2023-12-01T08:20:17.744Z,39.700
2023-12-01T08:21:20.889Z,38.300
2023-12-01T08:22:18.644Z,38.500
2023-12-01T08:23:18.400Z,38.800
2023-12-01T08:24:18.608Z,40.000
2023-12-01T08:25:19.012Z,40.200
2023-12-01T08:26:17.635Z,42.700
2023-12-01T08:27:19.851Z,42.400
2023-12-01T08:28:18.502Z,37.800
2023-12-01T08:29:18.082Z,39.000
2023-12-01T08:31:17.794Z,37.900
2023-12-01T08:32:19.064Z,37.600
2023-12-01T08:33:18.058Z,38.000
2023-12-01T08:34:29.698Z,37.500
2023-12-01T08:36:23.338Z,38.100
2023-12-01T08:37:25.217Z,37.100
2023-12-01T08:39:17.940Z,36.700
2023-12-01T08:40:21.052Z,37.900
2023-12-01T08:41:18.316Z,38.000
2023-12-01T08:42:18.416Z,35.400
2023-12-01T08:43:18.066Z,34.900
2023-12-01T08:44:17.838Z,38.100
2023-12-01T08:45:18.742Z,34.700
2023-12-01T08:46:18.692Z,35.500
2023-12-01T08:48:18.435Z,36.900
2023-12-01T08:49:18.542Z,34.400
2023-12-01T08:50:24.353Z,34.700
2023-12-01T08:51:18.988Z,34.300
2023-12-01T08:52:17.769Z,34.600
2023-12-01T08:53:18.552Z,36.000
2023-12-01T08:54:25.236Z,33.800
2023-12-01T08:56:17.831Z,34.900
2023-12-01T08:57:18.454Z,32.600
2023-12-01T08:58:18.033Z,34.700
2023-12-01T08:59:17.879Z,34.200
2023-12-01T09:00:18.610Z,34.400
2023-12-01T09:01:18.629Z,36.200
2023-12-01T09:02:24.204Z,36.200
2023-12-01T09:03:17.838Z,36.900
2023-12-01T09:04:19.244Z,38.000
2023-12-01T09:05:18.382Z,35.500
2023-12-01T09:06:18.733Z,37.700
2023-12-01T09:07:18.510Z,38.700
2023-12-01T09:08:18.611Z,37.500
2023-12-01T09:09:18.601Z,38.200
2023-12-01T09:10:18.211Z,39.200
2023-12-01T09:13:20.116Z,40.000
2023-12-01T09:14:17.742Z,40.900
2023-12-01T09:15:18.455Z,40.300
2023-12-01T09:16:18.255Z,39.300
2023-12-01T09:17:18.371Z,40.000
2023-12-01T09:18:18.803Z,42.800
2023-12-01T09:19:19.013Z,41.500
2023-12-01T09:20:18.467Z,38.900
2023-12-01T09:21:18.892Z,40.400
2023-12-01T09:23:18.581Z,42.400
2023-12-01T09:24:18.548Z,40.100
2023-12-01T09:25:20.111Z,40.100
2023-12-01T09:26:18.474Z,39.500
2023-12-01T09:27:18.533Z,40.200
2023-12-01T09:28:18.502Z,40.200
2023-12-01T09:29:18.182Z,39.800
2023-12-01T09:30:19.305Z,41.100
2023-12-01T09:31:18.658Z,42.700
2023-12-01T09:33:18.764Z,43.900
2023-12-01T09:34:18.534Z,42.600
2023-12-01T09:35:53.528Z,40.800
2023-12-01T09:36:18.837Z,42.400
2023-12-01T09:37:18.582Z,41.000
2023-12-01T09:39:18.278Z,40.800
2023-12-01T09:40:17.779Z,42.000
2023-12-01T09:41:17.984Z,38.700
2023-12-01T09:42:18.406Z,41.500
2023-12-01T09:43:18.553Z,41.300
2023-12-01T09:44:23.264Z,40.800
2023-12-01T09:45:17.689Z,39.300
2023-12-01T09:46:18.839Z,38.500
2023-12-01T09:49:18.487Z,40.400
2023-12-01T09:51:18.144Z,38.100
2023-12-01T09:52:17.866Z,37.800
2023-12-01T09:53:18.558Z,39.300
2023-12-01T09:54:19.450Z,38.000
2023-12-01T09:55:18.248Z,38.000
2023-12-01T09:56:18.109Z,35.000
2023-12-01T09:57:19.757Z,37.800
2023-12-01T09:58:18.447Z,39.200
2023-12-01T09:59:18.373Z,36.600
2023-12-01T10:00:18.669Z,35.700
2023-12-01T10:01:18.433Z,36.700
2023-12-01T10:02:18.986Z,38.100
2023-12-01T10:04:18.829Z,39.100
2023-12-01T10:05:19.327Z,38.400
2023-12-01T10:06:18.501Z,37.000
2023-12-01T10:07:19.096Z,39.800
2023-12-01T10:09:18.833Z,36.700
2023-12-01T10:10:18.399Z,37.000
2023-12-01T10:11:18.182Z,34.700
2023-12-01T10:12:18.423Z,36.100
2023-12-01T10:13:21.022Z,35.000
2023-12-01T10:17:18.668Z,37.500
2023-12-01T10:18:29.315Z,38.400
2023-12-01T10:20:17.778Z,38.100
2023-12-01T10:21:18.692Z,35.200
2023-12-01T10:22:18.373Z,36.200
2023-12-01T10:23:18.042Z,35.600
2023-12-01T10:24:17.657Z,37.200
2023-12-01T10:25:18.128Z,35.100
2023-12-01T10:26:18.155Z,34.200
2023-12-01T10:27:18.715Z,33.500
2023-12-01T10:28:18.426Z,35.200
2023-12-01T10:31:17.648Z,35.400
2023-12-01T10:32:18.426Z,32.500
2023-12-01T10:33:18.542Z,34.200
2023-12-01T10:35:17.950Z,35.100
2023-12-01T10:36:19.019Z,34.300
2023-12-01T10:37:18.544Z,35.900
2023-12-01T10:38:18.368Z,34.300
2023-12-01T10:40:18.299Z,35.200
2023-12-01T10:41:18.332Z,35.200
2023-12-01T10:42:18.602Z,34.800
2023-12-01T10:44:18.525Z,35.300
2023-12-01T10:45:18.403Z,35.400
2023-12-01T10:46:19.140Z,34.400
2023-12-01T10:47:20.277Z,35.400
2023-12-01T10:48:19.027Z,36.600
2023-12-01T10:49:17.954Z,35.800
2023-12-01T10:50:18.516Z,35.700
2023-12-01T10:51:18.693Z,36.900
2023-12-01T10:52:18.299Z,35.600
2023-12-01T10:54:18.712Z,37.000
2023-12-01T10:55:18.467Z,35.700
2023-12-01T10:56:18.547Z,34.800
2023-12-01T10:57:18.938Z,37.200
2023-12-01T10:58:17.653Z,38.100
2023-12-01T10:59:18.453Z,36.400
2023-12-01T11:00:18.294Z,36.300
2023-12-01T11:01:18.055Z,33.800
2023-12-01T11:02:18.653Z,35.100
2023-12-01T11:03:20.678Z,36.100
2023-12-01T11:04:18.252Z,34.100
2023-12-01T11:05:18.002Z,35.800
2023-12-01T11:07:18.270Z,35.600
2023-12-01T11:09:18.571Z,36.900
2023-12-01T11:10:18.332Z,34.400
2023-12-01T11:12:18.069Z,35.300
2023-12-01T11:13:18.641Z,33.200
2023-12-01T11:14:17.879Z,33.900
2023-12-01T11:15:19.470Z,34.200
2023-12-01T11:16:18.370Z,33.900
2023-12-01T11:17:23.094Z,34.500
2023-12-01T11:20:18.161Z,32.900
2023-12-01T11:21:18.083Z,32.400
2023-12-01T11:22:18.244Z,34.000
2023-12-01T11:23:20.724Z,33.000
2023-12-01T11:24:19.309Z,33.800
2023-12-01T11:25:18.425Z,32.400
2023-12-01T11:26:18.533Z,33.800
2023-12-01T11:27:18.781Z,35.000
2023-12-01T11:28:18.614Z,34.200
2023-12-01T11:29:21.414Z,35.400
2023-12-01T11:30:18.195Z,43.000
2023-12-01T11:32:19.240Z,34.300
2023-12-01T11:33:18.925Z,33.200
2023-12-01T11:34:18.644Z,36.600
2023-12-01T11:35:20.044Z,33.600
2023-12-01T11:36:18.534Z,36.600
2023-12-01T11:37:18.558Z,33.800
2023-12-01T11:38:18.363Z,34.700
2023-12-01T11:39:19.322Z,31.900
2023-12-01T11:41:18.578Z,34.000
2023-12-01T11:42:18.470Z,31.000
2023-12-01T11:43:38.651Z,31.100
2023-12-01T11:45:19.245Z,33.100
2023-12-01T11:46:18.946Z,32.200
2023-12-01T11:47:21.376Z,31.200
2023-12-01T11:48:19.347Z,31.700
2023-12-01T11:49:19.700Z,32.000
2023-12-01T11:50:18.279Z,33.500
2023-12-01T11:51:18.477Z,32.200
2023-12-01T11:52:18.522Z,31.500
2023-12-01T11:53:18.769Z,31.100
2023-12-01T11:54:17.897Z,30.900
2023-12-01T11:55:18.826Z,30.000
2023-12-01T11:56:18.635Z,29.700
2023-12-01T11:57:18.591Z,31.000
2023-12-01T11:58:18.853Z,28.500
2023-12-01T11:59:18.467Z,32.000
2023-12-01T12:00:18.607Z,29.300
2023-12-01T12:01:18.187Z,27.600
2023-12-01T12:02:18.489Z,30.000
2023-12-01T12:03:18.547Z,30.500
2023-12-01T12:04:18.721Z,28.900
2023-12-01T12:05:17.738Z,28.700
2023-12-01T12:06:17.930Z,28.500
2023-12-01T12:07:18.311Z,27.900
2023-12-01T12:08:18.502Z,29.400
2023-12-01T12:09:18.920Z,31.000
2023-12-01T12:10:18.680Z,28.300
2023-12-01T12:11:18.168Z,28.500
2023-12-01T12:12:20.344Z,28.200
2023-12-01T12:13:18.214Z,26.900
2023-12-01T12:14:18.345Z,27.000
2023-12-01T12:15:18.289Z,29.200
2023-12-01T12:16:18.701Z,26.600
2023-12-01T12:17:18.746Z,27.900
2023-12-01T12:18:19.567Z,27.900
2023-12-01T12:19:19.144Z,27.900
2023-12-01T12:20:23.647Z,27.500
2023-12-01T12:21:17.657Z,28.700
2023-12-01T12:22:18.738Z,28.300
2023-12-01T12:23:18.574Z,28.100
2023-12-01T12:24:19.104Z,27.300
2023-12-01T12:25:19.022Z,28.000
2023-12-01T12:26:18.025Z,28.500
2023-12-01T12:27:18.298Z,30.500
2023-12-01T12:28:18.196Z,28.400
2023-12-01T12:29:18.161Z,28.400
2023-12-01T12:30:18.425Z,26.400
2023-12-01T12:31:18.799Z,27.200
2023-12-01T12:32:19.179Z,29.300
2023-12-01T12:34:23.651Z,28.200
2023-12-01T12:36:18.721Z,27.600
2023-12-01T12:37:18.576Z,28.800
2023-12-01T12:38:18.682Z,28.000
2023-12-01T12:39:18.917Z,26.900
2023-12-01T12:40:17.644Z,26.300
2023-12-01T12:41:18.220Z,27.100
2023-12-01T12:42:18.099Z,26.800
2023-12-01T12:43:17.981Z,27.200
2023-12-01T12:44:18.579Z,27.300
2023-12-01T12:45:18.392Z,26.700
2023-12-01T12:46:18.416Z,26.100
2023-12-01T12:47:18.975Z,27.300
2023-12-01T12:48:18.885Z,26.700
2023-12-01T12:49:18.481Z,25.300
2023-12-01T12:50:18.503Z,26.800
2023-12-01T12:51:18.669Z,25.300
2023-12-01T12:52:18.279Z,26.200
2023-12-01T12:53:17.806Z,25.900
2023-12-01T12:54:18.615Z,28.300
2023-12-01T12:55:18.340Z,26.700
2023-12-01T12:56:18.213Z,26.800
2023-12-01T12:57:18.080Z,26.500
2023-12-01T12:58:17.577Z,25.400
2023-12-01T12:59:18.332Z,25.200
2023-12-01T13:00:18.558Z,25.300
2023-12-01T13:01:18.381Z,26.900
2023-12-01T13:02:18.468Z,26.100
2023-12-01T13:03:18.825Z,26.300
2023-12-01T13:04:17.885Z,23.900
2023-12-01T13:05:17.678Z,24.300
2023-12-01T13:06:18.769Z,27.400
2023-12-01T13:07:18.716Z,24.600
2023-12-01T13:08:18.289Z,25.200
2023-12-01T13:09:18.378Z,25.300
2023-12-01T13:10:17.637Z,26.000
2023-12-01T13:11:18.219Z,25.200
2023-12-01T13:12:18.449Z,24.400
2023-12-01T13:13:18.144Z,25.100
2023-12-01T13:14:18.985Z,26.200
2023-12-01T13:15:17.744Z,26.000
2023-12-01T13:16:18.616Z,24.900
2023-12-01T13:17:18.456Z,26.200
2023-12-01T13:18:18.953Z,23.900
2023-12-01T13:19:19.114Z,24.900
2023-12-01T13:20:18.553Z,25.100
2023-12-01T13:21:19.103Z,25.300
2023-12-01T13:22:17.785Z,24.500
2023-12-01T13:23:18.381Z,23.800
2023-12-01T13:24:18.441Z,24.100
2023-12-01T13:25:17.765Z,24.300
2023-12-01T13:26:18.309Z,25.400
2023-12-01T13:27:18.352Z,25.000
2023-12-01T13:29:18.402Z,25.100
2023-12-01T13:30:18.656Z,25.300
2023-12-01T13:31:18.644Z,25.600
2023-12-01T13:32:18.553Z,24.700
2023-12-01T13:33:18.998Z,26.100
2023-12-01T13:35:18.869Z,23.700
2023-12-01T13:36:18.993Z,26.600
2023-12-01T13:37:17.855Z,24.400
2023-12-01T13:38:18.591Z,26.400
2023-12-01T13:40:18.441Z,25.700
2023-12-01T13:41:18.143Z,24.600
2023-12-01T13:42:18.356Z,24.100
2023-12-01T13:43:18.252Z,24.500
2023-12-01T13:45:23.533Z,24.900
2023-12-01T13:46:18.581Z,24.300
2023-12-01T13:48:18.765Z,23.700
2023-12-01T13:49:18.492Z,24.700
2023-12-01T13:51:17.850Z,24.600
2023-12-01T13:52:18.482Z,23.900
2023-12-01T13:53:17.993Z,24.100
2023-12-01T13:54:18.947Z,24.900
2023-12-01T13:55:18.673Z,23.200
2023-12-01T13:56:23.313Z,24.200
2023-12-01T13:57:18.465Z,22.700
2023-12-01T13:58:18.770Z,25.300
2023-12-01T13:59:18.010Z,23.900
2023-12-01T14:00:18.049Z,22.000
2023-12-01T14:01:18.964Z,24.300
2023-12-01T14:02:18.540Z,24.600
2023-12-01T14:03:35.483Z,25.600
2023-12-01T14:05:17.980Z,22.900
2023-12-01T14:06:19.404Z,22.800
2023-12-01T14:07:18.201Z,24.200
2023-12-01T14:08:18.061Z,24.500
2023-12-01T14:09:17.776Z,25.600
2023-12-01T14:10:18.860Z,23.200
2023-12-01T14:11:18.417Z,23.100
2023-12-01T14:12:19.434Z,23.200
2023-12-01T14:13:18.511Z,23.100
2023-12-01T14:14:18.686Z,24.100
2023-12-01T14:15:18.501Z,23.000
2023-12-01T14:16:18.829Z,22.700
2023-12-01T14:17:17.868Z,22.700
2023-12-01T14:18:18.990Z,22.900
2023-12-01T14:19:17.951Z,24.500
2023-12-01T14:20:18.738Z,23.800
2023-12-01T14:21:18.477Z,23.300
2023-12-01T14:22:18.173Z,22.700
2023-12-01T14:23:17.648Z,24.500
2023-12-01T14:24:18.363Z,25.200
2023-12-01T14:25:18.523Z,23.600